sensor_id;sensor_type;location;lat;lon;timestamp;temperature;humidity
76203;DHT22;64985;46.364;17.008;2023-02-13T00:00:02;-1.20;99.90
76203;DHT22;64985;46.364;17.008;2023-02-13T00:03:06;-1.30;99.90
76203;DHT22;64985;46.364;17.008;2023-02-13T00:06:10;-1.30;99.90
76203;DHT22;64985;46.364;17.008;2023-02-13T00:09:13;-1.30;99.90
76203;DHT22;64985;46.364;17.008;2023-02-13T00:12:15;-1.40;99.90
76203;DHT22;64985;46.364;17.008;2023-02-13T00:15:17;-1.40;99.90
76203;DHT22;64985;46.364;17.008;2023-02-13T00:18:20;-1.50;99.90
76203;DHT22;64985;46.364;17.008;2023-02-13T00:21:22;-1.60;99.90
76203;DHT22;64985;46.364;17.008;2023-02-13T00:24:24;-1.60;99.90
76203;DHT22;64985;46.364;17.008;2023-02-13T00:27:26;-1.60;99.90
76203;DHT22;64985;46.364;17.008;2023-02-13T00:30:29;-1.60;99.90
76203;DHT22;64985;46.364;17.008;2023-02-13T00:33:31;-1.70;99.90
76203;DHT22;64985;46.364;17.008;2023-02-13T00:36:33;-1.80;99.90
76203;DHT22;64985;46.364;17.008;2023-02-13T00:39:36;-1.80;99.90
76203;DHT22;64985;46.364;17.008;2023-02-13T00:42:38;-1.90;99.90
76203;DHT22;64985;46.364;17.008;2023-02-13T00:45:41;-1.90;99.90
76203;DHT22;64985;46.364;17.008;2023-02-13T00:48:44;-1.90;99.90
76203;DHT22;64985;46.364;17.008;2023-02-13T00:51:46;-1.90;99.90
76203;DHT22;64985;46.364;17.008;2023-02-13T00:54:49;-1.70;99.90
76203;DHT22;64985;46.364;17.008;2023-02-13T00:57:51;-1.70;99.90
76203;DHT22;64985;46.364;17.008;2023-02-13T01:00:53;-1.60;99.90
76203;DHT22;64985;46.364;17.008;2023-02-13T01:03:56;-1.60;99.90
76203;DHT22;64985;46.364;17.008;2023-02-13T01:06:59;-1.50;99.90
76203;DHT22;64985;46.364;17.008;2023-02-13T01:10:01;-1.40;99.90
76203;DHT22;64985;46.364;17.008;2023-02-13T01:13:04;-1.30;99.90
76203;DHT22;64985;46.364;17.008;2023-02-13T01:16:06;-1.20;99.90
76203;DHT22;64985;46.364;17.008;2023-02-13T01:19:08;-1.30;99.90
76203;DHT22;64985;46.364;17.008;2023-02-13T01:22:10;-1.30;99.90
76203;DHT22;64985;46.364;17.008;2023-02-13T01:25:12;-1.30;99.90
76203;DHT22;64985;46.364;17.008;2023-02-13T01:28:15;-1.20;99.90
76203;DHT22;64985;46.364;17.008;2023-02-13T01:31:17;-1.20;99.90
76203;DHT22;64985;46.364;17.008;2023-02-13T01:34:19;-1.10;99.90
76203;DHT22;64985;46.364;17.008;2023-02-13T01:37:21;-1.10;99.90
76203;DHT22;64985;46.364;17.008;2023-02-13T01:40:23;-1.10;99.90
76203;DHT22;64985;46.364;17.008;2023-02-13T01:44:43;-1.10;99.90
76203;DHT22;64985;46.364;17.008;2023-02-13T01:47:04;-1.10;99.90
76203;DHT22;64985;46.364;17.008;2023-02-13T01:53:47;-1.10;99.90
76203;DHT22;64985;46.364;17.008;2023-02-13T01:56:53;-1.10;99.90
76203;DHT22;64985;46.364;17.008;2023-02-13T02:00:01;-1.10;99.90
76203;DHT22;64985;46.364;17.008;2023-02-13T02:03:13;-1.10;99.90
76203;DHT22;64985;46.364;17.008;2023-02-13T02:06:25;-1.20;99.90
76203;DHT22;64985;46.364;17.008;2023-02-13T02:09:31;-1.20;99.90
76203;DHT22;64985;46.364;17.008;2023-02-13T02:12:42;-1.20;99.90
76203;DHT22;64985;46.364;17.008;2023-02-13T02:15:46;-1.20;99.90
76203;DHT22;64985;46.364;17.008;2023-02-13T02:18:48;-1.30;99.90
76203;DHT22;64985;46.364;17.008;2023-02-13T02:38:37;-1.70;99.90
76203;DHT22;64985;46.364;17.008;2023-02-13T02:41:51;-1.70;99.90
76203;DHT22;64985;46.364;17.008;2023-02-13T02:45:06;-1.70;99.90
76203;DHT22;64985;46.364;17.008;2023-02-13T02:48:22;-1.80;99.90
76203;DHT22;64985;46.364;17.008;2023-02-13T02:51:56;-1.80;99.90
76203;DHT22;64985;46.364;17.008;2023-02-13T02:58:55;-2.00;99.90
76203;DHT22;64985;46.364;17.008;2023-02-13T03:02:17;-2.00;99.90
76203;DHT22;64985;46.364;17.008;2023-02-13T03:05:40;-2.10;99.90
76203;DHT22;64985;46.364;17.008;2023-02-13T03:09:06;-2.20;99.90
76203;DHT22;64985;46.364;17.008;2023-02-13T03:12:51;-2.20;99.90
76203;DHT22;64985;46.364;17.008;2023-02-13T03:16:19;-2.30;99.90
76203;DHT22;64985;46.364;17.008;2023-02-13T03:27:17;-2.40;99.90
76203;DHT22;64985;46.364;17.008;2023-02-13T03:34:06;-2.50;99.90
76203;DHT22;64985;46.364;17.008;2023-02-13T03:37:13;-2.50;99.90
76203;DHT22;64985;46.364;17.008;2023-02-13T03:40:45;-2.60;99.90
76203;DHT22;64985;46.364;17.008;2023-02-13T03:44:32;-2.50;99.90
76203;DHT22;64985;46.364;17.008;2023-02-13T03:47:36;-2.60;99.90
76203;DHT22;64985;46.364;17.008;2023-02-13T03:50:42;-2.70;99.90
76203;DHT22;64985;46.364;17.008;2023-02-13T03:53:49;-2.80;99.90
76203;DHT22;64985;46.364;17.008;2023-02-13T03:56:53;-2.80;99.90
76203;DHT22;64985;46.364;17.008;2023-02-13T04:00:15;-2.80;99.90
76203;DHT22;64985;46.364;17.008;2023-02-13T04:06:53;-2.80;99.90
76203;DHT22;64985;46.364;17.008;2023-02-13T04:10:03;-2.90;99.90
76203;DHT22;64985;46.364;17.008;2023-02-13T04:16:41;-3.00;99.90
76203;DHT22;64985;46.364;17.008;2023-02-13T04:19:44;-3.00;99.90
76203;DHT22;64985;46.364;17.008;2023-02-13T04:22:47;-3.00;99.90
76203;DHT22;64985;46.364;17.008;2023-02-13T04:25:51;-3.00;99.90
76203;DHT22;64985;46.364;17.008;2023-02-13T04:28:55;-3.10;99.90
76203;DHT22;64985;46.364;17.008;2023-02-13T04:31:57;-3.10;99.90
76203;DHT22;64985;46.364;17.008;2023-02-13T04:34:59;-3.10;99.90
76203;DHT22;64985;46.364;17.008;2023-02-13T04:38:02;-3.20;99.90
76203;DHT22;64985;46.364;17.008;2023-02-13T04:41:04;-3.20;99.90
76203;DHT22;64985;46.364;17.008;2023-02-13T04:44:06;-3.30;99.90
76203;DHT22;64985;46.364;17.008;2023-02-13T04:47:08;-3.30;99.90
76203;DHT22;64985;46.364;17.008;2023-02-13T04:50:11;-3.40;99.90
76203;DHT22;64985;46.364;17.008;2023-02-13T04:53:13;-3.40;99.90
76203;DHT22;64985;46.364;17.008;2023-02-13T04:56:15;-3.40;99.90
76203;DHT22;64985;46.364;17.008;2023-02-13T04:59:21;-3.40;99.90
76203;DHT22;64985;46.364;17.008;2023-02-13T05:02:23;-3.40;99.90
76203;DHT22;64985;46.364;17.008;2023-02-13T05:05:25;-3.50;99.90
76203;DHT22;64985;46.364;17.008;2023-02-13T05:08:27;-3.50;99.90
76203;DHT22;64985;46.364;17.008;2023-02-13T05:11:30;-3.50;99.90
76203;DHT22;64985;46.364;17.008;2023-02-13T05:14:32;-3.50;99.90
76203;DHT22;64985;46.364;17.008;2023-02-13T05:17:34;-3.50;99.90
76203;DHT22;64985;46.364;17.008;2023-02-13T05:20:36;-3.50;99.90
76203;DHT22;64985;46.364;17.008;2023-02-13T05:23:38;-3.50;99.90
76203;DHT22;64985;46.364;17.008;2023-02-13T05:26:40;-3.50;99.90
76203;DHT22;64985;46.364;17.008;2023-02-13T05:29:42;-3.60;99.90
76203;DHT22;64985;46.364;17.008;2023-02-13T05:32:45;-3.60;99.90
76203;DHT22;64985;46.364;17.008;2023-02-13T05:35:47;-3.50;99.90
76203;DHT22;64985;46.364;17.008;2023-02-13T05:38:49;-3.60;99.90
76203;DHT22;64985;46.364;17.008;2023-02-13T05:41:51;-3.50;99.90
76203;DHT22;64985;46.364;17.008;2023-02-13T05:44:53;-3.50;99.90
76203;DHT22;64985;46.364;17.008;2023-02-13T05:47:55;-3.50;99.90
76203;DHT22;64985;46.364;17.008;2023-02-13T05:50:58;-3.60;99.90
76203;DHT22;64985;46.364;17.008;2023-02-13T05:54:00;-3.60;99.90
76203;DHT22;64985;46.364;17.008;2023-02-13T05:57:03;-3.60;99.90
76203;DHT22;64985;46.364;17.008;2023-02-13T06:00:05;-3.60;99.90
76203;DHT22;64985;46.364;17.008;2023-02-13T06:03:08;-3.60;99.90
76203;DHT22;64985;46.364;17.008;2023-02-13T06:06:10;-3.60;99.90
76203;DHT22;64985;46.364;17.008;2023-02-13T06:09:12;-3.60;99.90
76203;DHT22;64985;46.364;17.008;2023-02-13T06:12:14;-3.60;99.90
76203;DHT22;64985;46.364;17.008;2023-02-13T06:15:17;-3.60;99.90
76203;DHT22;64985;46.364;17.008;2023-02-13T06:18:19;-3.60;99.90
76203;DHT22;64985;46.364;17.008;2023-02-13T06:21:21;-3.70;99.90
76203;DHT22;64985;46.364;17.008;2023-02-13T06:24:23;-3.70;99.90
76203;DHT22;64985;46.364;17.008;2023-02-13T06:27:26;-3.60;99.90
76203;DHT22;64985;46.364;17.008;2023-02-13T06:30:28;-3.60;99.90
76203;DHT22;64985;46.364;17.008;2023-02-13T06:33:30;-3.60;99.90
76203;DHT22;64985;46.364;17.008;2023-02-13T06:36:33;-3.60;99.90
76203;DHT22;64985;46.364;17.008;2023-02-13T06:39:35;-3.60;99.90
76203;DHT22;64985;46.364;17.008;2023-02-13T06:42:37;-3.50;99.90
76203;DHT22;64985;46.364;17.008;2023-02-13T06:45:39;-3.50;99.90
76203;DHT22;64985;46.364;17.008;2023-02-13T06:48:42;-3.40;99.90
76203;DHT22;64985;46.364;17.008;2023-02-13T06:51:44;-3.40;99.90
76203;DHT22;64985;46.364;17.008;2023-02-13T06:54:46;-3.40;99.90
76203;DHT22;64985;46.364;17.008;2023-02-13T06:57:49;-3.40;99.90
76203;DHT22;64985;46.364;17.008;2023-02-13T07:00:51;-3.30;99.90
76203;DHT22;64985;46.364;17.008;2023-02-13T07:03:54;-3.20;99.90
76203;DHT22;64985;46.364;17.008;2023-02-13T07:06:57;-3.10;99.90
76203;DHT22;64985;46.364;17.008;2023-02-13T07:09:59;-3.00;99.90
76203;DHT22;64985;46.364;17.008;2023-02-13T07:13:02;-3.00;99.90
76203;DHT22;64985;46.364;17.008;2023-02-13T07:16:07;-2.90;99.90
76203;DHT22;64985;46.364;17.008;2023-02-13T07:19:09;-2.80;99.90
76203;DHT22;64985;46.364;17.008;2023-02-13T07:22:11;-2.70;99.90
76203;DHT22;64985;46.364;17.008;2023-02-13T07:25:13;-2.70;99.90
76203;DHT22;64985;46.364;17.008;2023-02-13T07:28:15;-2.60;99.90
76203;DHT22;64985;46.364;17.008;2023-02-13T07:31:18;-2.50;99.90
76203;DHT22;64985;46.364;17.008;2023-02-13T07:34:20;-2.40;99.90
76203;DHT22;64985;46.364;17.008;2023-02-13T07:37:23;-2.30;99.90
76203;DHT22;64985;46.364;17.008;2023-02-13T07:40:25;-2.10;99.90
76203;DHT22;64985;46.364;17.008;2023-02-13T07:43:28;-1.90;99.90
76203;DHT22;64985;46.364;17.008;2023-02-13T07:46:30;-1.80;99.90
76203;DHT22;64985;46.364;17.008;2023-02-13T07:49:32;-1.70;99.90
76203;DHT22;64985;46.364;17.008;2023-02-13T07:52:35;-1.40;99.90
76203;DHT22;64985;46.364;17.008;2023-02-13T07:55:39;-1.10;99.90
76203;DHT22;64985;46.364;17.008;2023-02-13T07:58:41;-0.80;99.90
76203;DHT22;64985;46.364;17.008;2023-02-13T08:01:45;-0.70;99.90
76203;DHT22;64985;46.364;17.008;2023-02-13T08:04:48;-0.50;99.90
76203;DHT22;64985;46.364;17.008;2023-02-13T08:07:50;-0.20;99.90
76203;DHT22;64985;46.364;17.008;2023-02-13T08:10:53;-0.10;99.90
76203;DHT22;64985;46.364;17.008;2023-02-13T08:14:14;0.10;99.90
76203;DHT22;64985;46.364;17.008;2023-02-13T08:17:16;0.30;99.90
76203;DHT22;64985;46.364;17.008;2023-02-13T08:20:18;0.50;99.90
76203;DHT22;64985;46.364;17.008;2023-02-13T08:23:21;0.80;99.90
76203;DHT22;64985;46.364;17.008;2023-02-13T08:26:23;1.20;99.90
76203;DHT22;64985;46.364;17.008;2023-02-13T08:29:25;1.60;99.90
76203;DHT22;64985;46.364;17.008;2023-02-13T08:32:27;1.90;99.90
76203;DHT22;64985;46.364;17.008;2023-02-13T08:35:29;2.00;99.90
76203;DHT22;64985;46.364;17.008;2023-02-13T08:38:32;2.20;99.90
76203;DHT22;64985;46.364;17.008;2023-02-13T08:41:35;2.40;99.90
76203;DHT22;64985;46.364;17.008;2023-02-13T08:44:37;2.70;99.90
76203;DHT22;64985;46.364;17.008;2023-02-13T08:47:41;3.30;99.90
76203;DHT22;64985;46.364;17.008;2023-02-13T08:50:44;3.70;99.90
76203;DHT22;64985;46.364;17.008;2023-02-13T08:53:46;4.00;99.90
76203;DHT22;64985;46.364;17.008;2023-02-13T08:56:48;4.30;99.90
76203;DHT22;64985;46.364;17.008;2023-02-13T08:59:50;4.50;99.90
76203;DHT22;64985;46.364;17.008;2023-02-13T09:02:53;4.60;99.90
76203;DHT22;64985;46.364;17.008;2023-02-13T09:05:58;4.80;99.90
76203;DHT22;64985;46.364;17.008;2023-02-13T09:09:01;4.90;99.90
76203;DHT22;64985;46.364;17.008;2023-02-13T09:12:04;5.20;99.90
76203;DHT22;64985;46.364;17.008;2023-02-13T09:15:07;5.50;99.90
76203;DHT22;64985;46.364;17.008;2023-02-13T09:18:09;6.30;99.90
76203;DHT22;64985;46.364;17.008;2023-02-13T09:21:11;7.10;97.00
76203;DHT22;64985;46.364;17.008;2023-02-13T09:24:13;7.90;94.00
76203;DHT22;64985;46.364;17.008;2023-02-13T09:27:15;8.60;81.70
76203;DHT22;64985;46.364;17.008;2023-02-13T09:30:18;9.20;75.20
76203;DHT22;64985;46.364;17.008;2023-02-13T09:33:25;9.50;70.50
76203;DHT22;64985;46.364;17.008;2023-02-13T09:36:27;9.80;62.40
76203;DHT22;64985;46.364;17.008;2023-02-13T09:39:29;9.90;59.50
76203;DHT22;64985;46.364;17.008;2023-02-13T09:42:32;9.90;65.20
76203;DHT22;64985;46.364;17.008;2023-02-13T09:45:44;10.60;58.30
76203;DHT22;64985;46.364;17.008;2023-02-13T09:48:52;10.80;54.90
76203;DHT22;64985;46.364;17.008;2023-02-13T09:51:56;11.30;52.50
76203;DHT22;64985;46.364;17.008;2023-02-13T09:55:00;11.10;53.30
76203;DHT22;64985;46.364;17.008;2023-02-13T09:58:12;11.40;53.70
76203;DHT22;64985;46.364;17.008;2023-02-13T10:04:55;11.10;52.30
76203;DHT22;64985;46.364;17.008;2023-02-13T10:11:41;12.00;46.70
76203;DHT22;64985;46.364;17.008;2023-02-13T10:14:54;12.00;46.20
76203;DHT22;64985;46.364;17.008;2023-02-13T10:18:03;11.60;46.90
76203;DHT22;64985;46.364;17.008;2023-02-13T10:21:08;11.70;48.20
76203;DHT22;64985;46.364;17.008;2023-02-13T10:24:17;11.10;46.80
76203;DHT22;64985;46.364;17.008;2023-02-13T10:27:31;10.60;50.20
76203;DHT22;64985;46.364;17.008;2023-02-13T10:30:44;10.10;53.00
76203;DHT22;64985;46.364;17.008;2023-02-13T10:33:50;9.80;55.40
76203;DHT22;64985;46.364;17.008;2023-02-13T10:36:53;9.40;56.40
76203;DHT22;64985;46.364;17.008;2023-02-13T10:39:56;9.30;61.70
76203;DHT22;64985;46.364;17.008;2023-02-13T10:43:08;9.20;61.80
76203;DHT22;64985;46.364;17.008;2023-02-13T10:50:12;9.20;61.60
76203;DHT22;64985;46.364;17.008;2023-02-13T10:53:20;9.50;60.40
76203;DHT22;64985;46.364;17.008;2023-02-13T10:59:47;10.30;51.10
76203;DHT22;64985;46.364;17.008;2023-02-13T11:02:52;10.50;53.60
76203;DHT22;64985;46.364;17.008;2023-02-13T11:05:58;10.80;50.90
76203;DHT22;64985;46.364;17.008;2023-02-13T11:09:04;10.70;46.90
76203;DHT22;64985;46.364;17.008;2023-02-13T11:12:28;10.50;46.70
76203;DHT22;64985;46.364;17.008;2023-02-13T11:15:31;10.40;48.70
76203;DHT22;64985;46.364;17.008;2023-02-13T11:18:37;10.40;47.10
76203;DHT22;64985;46.364;17.008;2023-02-13T11:21:40;10.40;45.90
76203;DHT22;64985;46.364;17.008;2023-02-13T11:25:01;10.60;46.30
76203;DHT22;64985;46.364;17.008;2023-02-13T11:28:09;10.80;46.50
76203;DHT22;64985;46.364;17.008;2023-02-13T11:31:30;11.10;45.30
76203;DHT22;64985;46.364;17.008;2023-02-13T11:34:33;11.20;44.90
76203;DHT22;64985;46.364;17.008;2023-02-13T11:37:35;11.50;44.30
76203;DHT22;64985;46.364;17.008;2023-02-13T11:40:38;12.00;44.90
76203;DHT22;64985;46.364;17.008;2023-02-13T11:44:00;12.10;41.90
76203;DHT22;64985;46.364;17.008;2023-02-13T11:47:05;11.60;42.80
76203;DHT22;64985;46.364;17.008;2023-02-13T11:50:29;11.60;42.30
76203;DHT22;64985;46.364;17.008;2023-02-13T11:53:37;12.20;40.50
76203;DHT22;64985;46.364;17.008;2023-02-13T11:56:49;12.30;39.00
76203;DHT22;64985;46.364;17.008;2023-02-13T12:00:29;12.80;39.70
76203;DHT22;64985;46.364;17.008;2023-02-13T12:03:40;13.50;36.90
76203;DHT22;64985;46.364;17.008;2023-02-13T12:07:01;14.00;37.30
76203;DHT22;64985;46.364;17.008;2023-02-13T12:10:32;14.40;36.10
76203;DHT22;64985;46.364;17.008;2023-02-13T12:13:36;14.60;36.00
76203;DHT22;64985;46.364;17.008;2023-02-13T12:16:44;14.90;35.20
76203;DHT22;64985;46.364;17.008;2023-02-13T12:19:49;14.90;34.50
76203;DHT22;64985;46.364;17.008;2023-02-13T12:22:56;14.60;36.70
76203;DHT22;64985;46.364;17.008;2023-02-13T12:29:47;13.90;35.70
76203;DHT22;64985;46.364;17.008;2023-02-13T12:37:05;14.10;37.60
76203;DHT22;64985;46.364;17.008;2023-02-13T12:47:04;13.70;37.30
76203;DHT22;64985;46.364;17.008;2023-02-13T13:03:34;14.60;35.70
76203;DHT22;64985;46.364;17.008;2023-02-13T13:19:55;11.80;40.40
76203;DHT22;64985;46.364;17.008;2023-02-13T13:23:07;11.70;39.70
76203;DHT22;64985;46.364;17.008;2023-02-13T13:29:35;11.10;40.00
76203;DHT22;64985;46.364;17.008;2023-02-13T13:32:41;10.90;41.80
76203;DHT22;64985;46.364;17.008;2023-02-13T13:42:38;10.40;43.40
76203;DHT22;64985;46.364;17.008;2023-02-13T13:45:51;10.20;43.70
76203;DHT22;64985;46.364;17.008;2023-02-13T13:52:27;10.20;44.80
76203;DHT22;64985;46.364;17.008;2023-02-13T13:59:00;10.40;45.10
76203;DHT22;64985;46.364;17.008;2023-02-13T14:05:31;10.20;45.40
76203;DHT22;64985;46.364;17.008;2023-02-13T14:11:43;10.20;44.10
76203;DHT22;64985;46.364;17.008;2023-02-13T14:14:48;10.10;45.10
76203;DHT22;64985;46.364;17.008;2023-02-13T14:17:55;10.10;46.00
76203;DHT22;64985;46.364;17.008;2023-02-13T14:21:01;10.50;44.80
76203;DHT22;64985;46.364;17.008;2023-02-13T14:24:10;10.50;45.00
76203;DHT22;64985;46.364;17.008;2023-02-13T14:27:29;10.50;44.80
76203;DHT22;64985;46.364;17.008;2023-02-13T14:30:37;10.20;44.90
76203;DHT22;64985;46.364;17.008;2023-02-13T14:33:41;10.10;45.70
76203;DHT22;64985;46.364;17.008;2023-02-13T14:36:46;10.00;45.20
76203;DHT22;64985;46.364;17.008;2023-02-13T14:43:37;10.60;47.30
76203;DHT22;64985;46.364;17.008;2023-02-13T14:46:40;11.50;43.90
76203;DHT22;64985;46.364;17.008;2023-02-13T14:49:50;12.10;42.10
76203;DHT22;64985;46.364;17.008;2023-02-13T14:52:56;12.50;39.90
76203;DHT22;64985;46.364;17.008;2023-02-13T14:56:06;12.20;40.60
76203;DHT22;64985;46.364;17.008;2023-02-13T14:59:17;11.80;41.60
76203;DHT22;64985;46.364;17.008;2023-02-13T15:02:30;11.40;40.70
76203;DHT22;64985;46.364;17.008;2023-02-13T15:05:35;11.90;40.50
76203;DHT22;64985;46.364;17.008;2023-02-13T15:08:44;12.60;39.40
76203;DHT22;64985;46.364;17.008;2023-02-13T15:11:48;12.30;39.60
76203;DHT22;64985;46.364;17.008;2023-02-13T15:14:50;11.40;40.10
76203;DHT22;64985;46.364;17.008;2023-02-13T15:17:58;10.90;43.40
76203;DHT22;64985;46.364;17.008;2023-02-13T15:21:01;10.10;44.70
76203;DHT22;64985;46.364;17.008;2023-02-13T15:24:04;9.50;46.00
76203;DHT22;64985;46.364;17.008;2023-02-13T15:27:26;9.00;48.30
76203;DHT22;64985;46.364;17.008;2023-02-13T15:30:34;8.70;50.50
76203;DHT22;64985;46.364;17.008;2023-02-13T15:33:46;8.60;53.90
76203;DHT22;64985;46.364;17.008;2023-02-13T15:36:49;8.40;54.40
76203;DHT22;64985;46.364;17.008;2023-02-13T15:39:52;8.30;56.10
76203;DHT22;64985;46.364;17.008;2023-02-13T15:42:55;8.30;57.20
76203;DHT22;64985;46.364;17.008;2023-02-13T15:46:02;8.40;57.30
76203;DHT22;64985;46.364;17.008;2023-02-13T15:49:07;8.70;56.20
76203;DHT22;64985;46.364;17.008;2023-02-13T15:52:33;9.00;53.80
76203;DHT22;64985;46.364;17.008;2023-02-13T15:55:37;8.60;55.40
76203;DHT22;64985;46.364;17.008;2023-02-13T15:58:41;7.80;59.20
76203;DHT22;64985;46.364;17.008;2023-02-13T16:01:45;7.20;66.70
76203;DHT22;64985;46.364;17.008;2023-02-13T16:04:51;6.70;72.80
76203;DHT22;64985;46.364;17.008;2023-02-13T16:07:59;6.20;80.80
76203;DHT22;64985;46.364;17.008;2023-02-13T16:11:33;5.90;86.60
76203;DHT22;64985;46.364;17.008;2023-02-13T16:14:50;5.60;90.70
76203;DHT22;64985;46.364;17.008;2023-02-13T16:17:55;5.20;92.40
76203;DHT22;64985;46.364;17.008;2023-02-13T16:20:58;4.80;93.90
76203;DHT22;64985;46.364;17.008;2023-02-13T16:24:05;4.50;95.20
76203;DHT22;64985;46.364;17.008;2023-02-13T16:27:13;4.20;95.70
76203;DHT22;64985;46.364;17.008;2023-02-13T16:30:38;3.90;96.50
76203;DHT22;64985;46.364;17.008;2023-02-13T16:33:42;3.60;97.90
76203;DHT22;64985;46.364;17.008;2023-02-13T16:36:45;3.30;98.70
76203;DHT22;64985;46.364;17.008;2023-02-13T16:39:48;3.10;99.50
76203;DHT22;64985;46.364;17.008;2023-02-13T16:42:52;2.90;99.60
76203;DHT22;64985;46.364;17.008;2023-02-13T16:46:09;2.70;99.90
76203;DHT22;64985;46.364;17.008;2023-02-13T16:49:18;2.60;99.90
76203;DHT22;64985;46.364;17.008;2023-02-13T16:52:25;2.40;99.90
76203;DHT22;64985;46.364;17.008;2023-02-13T16:55:28;2.30;99.90
76203;DHT22;64985;46.364;17.008;2023-02-13T16:58:33;2.10;99.90
76203;DHT22;64985;46.364;17.008;2023-02-13T17:01:36;1.90;99.90
76203;DHT22;64985;46.364;17.008;2023-02-13T17:04:47;1.80;99.90
76203;DHT22;64985;46.364;17.008;2023-02-13T17:07:52;1.60;99.90
76203;DHT22;64985;46.364;17.008;2023-02-13T17:11:07;1.30;99.90
76203;DHT22;64985;46.364;17.008;2023-02-13T17:14:10;1.10;99.90
76203;DHT22;64985;46.364;17.008;2023-02-13T17:17:17;0.80;99.90
76203;DHT22;64985;46.364;17.008;2023-02-13T17:20:30;0.70;99.90
76203;DHT22;64985;46.364;17.008;2023-02-13T17:23:34;0.60;99.90
76203;DHT22;64985;46.364;17.008;2023-02-13T17:26:37;0.50;99.90
76203;DHT22;64985;46.364;17.008;2023-02-13T17:29:41;0.50;99.90
76203;DHT22;64985;46.364;17.008;2023-02-13T17:32:45;0.30;99.90
76203;DHT22;64985;46.364;17.008;2023-02-13T17:35:50;0.20;99.90
76203;DHT22;64985;46.364;17.008;2023-02-13T17:38:54;0.00;99.90
76203;DHT22;64985;46.364;17.008;2023-02-13T17:41:58;0.00;99.90
76203;DHT22;64985;46.364;17.008;2023-02-13T17:45:02;-0.10;99.90
76203;DHT22;64985;46.364;17.008;2023-02-13T17:48:07;-0.10;99.90
76203;DHT22;64985;46.364;17.008;2023-02-13T17:51:13;-0.20;99.90
76203;DHT22;64985;46.364;17.008;2023-02-13T17:54:16;-0.20;99.90
76203;DHT22;64985;46.364;17.008;2023-02-13T17:57:19;-0.30;99.90
76203;DHT22;64985;46.364;17.008;2023-02-13T18:00:24;-0.30;99.90
76203;DHT22;64985;46.364;17.008;2023-02-13T18:03:30;-0.40;99.90
76203;DHT22;64985;46.364;17.008;2023-02-13T18:06:33;-0.40;99.90
76203;DHT22;64985;46.364;17.008;2023-02-13T18:09:37;-0.50;99.90
76203;DHT22;64985;46.364;17.008;2023-02-13T18:12:45;-0.60;99.90
76203;DHT22;64985;46.364;17.008;2023-02-13T18:15:49;-0.70;99.90
76203;DHT22;64985;46.364;17.008;2023-02-13T18:18:55;-0.80;99.90
76203;DHT22;64985;46.364;17.008;2023-02-13T18:22:00;-0.80;99.90
76203;DHT22;64985;46.364;17.008;2023-02-13T18:25:07;-0.80;99.90
76203;DHT22;64985;46.364;17.008;2023-02-13T18:28:11;-1.00;99.90
76203;DHT22;64985;46.364;17.008;2023-02-13T18:31:14;-1.00;99.90
76203;DHT22;64985;46.364;17.008;2023-02-13T18:34:23;-1.00;99.90
76203;DHT22;64985;46.364;17.008;2023-02-13T18:37:30;-1.00;99.90
76203;DHT22;64985;46.364;17.008;2023-02-13T18:40:35;-1.20;99.90
76203;DHT22;64985;46.364;17.008;2023-02-13T18:43:38;-1.20;99.90
76203;DHT22;64985;46.364;17.008;2023-02-13T18:46:43;-1.20;99.90
76203;DHT22;64985;46.364;17.008;2023-02-13T18:49:47;-1.30;99.90
76203;DHT22;64985;46.364;17.008;2023-02-13T18:52:50;-1.30;99.90
76203;DHT22;64985;46.364;17.008;2023-02-13T18:56:00;-1.40;99.90
76203;DHT22;64985;46.364;17.008;2023-02-13T18:59:04;-1.40;99.90
76203;DHT22;64985;46.364;17.008;2023-02-13T19:02:10;-1.50;99.90
76203;DHT22;64985;46.364;17.008;2023-02-13T19:05:14;-1.50;99.90
76203;DHT22;64985;46.364;17.008;2023-02-13T19:08:21;-1.60;99.90
76203;DHT22;64985;46.364;17.008;2023-02-13T19:11:26;-1.60;99.90
76203;DHT22;64985;46.364;17.008;2023-02-13T19:14:30;-1.70;99.90
76203;DHT22;64985;46.364;17.008;2023-02-13T19:17:38;-1.60;99.90
76203;DHT22;64985;46.364;17.008;2023-02-13T19:20:42;-1.60;99.90
76203;DHT22;64985;46.364;17.008;2023-02-13T19:23:46;-1.70;99.90
76203;DHT22;64985;46.364;17.008;2023-02-13T19:26:50;-1.70;99.90
76203;DHT22;64985;46.364;17.008;2023-02-13T19:29:54;-1.70;99.90
76203;DHT22;64985;46.364;17.008;2023-02-13T19:32:57;-1.80;99.90
76203;DHT22;64985;46.364;17.008;2023-02-13T19:36:04;-1.80;99.90
76203;DHT22;64985;46.364;17.008;2023-02-13T19:39:10;-1.90;99.90
76203;DHT22;64985;46.364;17.008;2023-02-13T19:42:13;-1.90;99.90
76203;DHT22;64985;46.364;17.008;2023-02-13T19:45:18;-2.00;99.90
76203;DHT22;64985;46.364;17.008;2023-02-13T19:48:23;-2.00;99.90
76203;DHT22;64985;46.364;17.008;2023-02-13T19:51:29;-2.00;99.90
76203;DHT22;64985;46.364;17.008;2023-02-13T19:54:33;-2.00;99.90
76203;DHT22;64985;46.364;17.008;2023-02-13T19:57:40;-2.10;99.90
76203;DHT22;64985;46.364;17.008;2023-02-13T20:00:46;-2.10;99.90
76203;DHT22;64985;46.364;17.008;2023-02-13T20:03:51;-2.20;99.90
76203;DHT22;64985;46.364;17.008;2023-02-13T20:06:57;-2.20;99.90
76203;DHT22;64985;46.364;17.008;2023-02-13T20:10:01;-2.20;99.90
76203;DHT22;64985;46.364;17.008;2023-02-13T20:13:05;-2.20;99.90
76203;DHT22;64985;46.364;17.008;2023-02-13T20:16:13;-2.20;99.90
76203;DHT22;64985;46.364;17.008;2023-02-13T20:19:18;-2.20;99.90
76203;DHT22;64985;46.364;17.008;2023-02-13T20:22:22;-2.20;99.90
76203;DHT22;64985;46.364;17.008;2023-02-13T20:25:26;-2.30;99.90
76203;DHT22;64985;46.364;17.008;2023-02-13T20:28:34;-2.30;99.90
76203;DHT22;64985;46.364;17.008;2023-02-13T20:31:38;-2.40;99.90
76203;DHT22;64985;46.364;17.008;2023-02-13T20:34:44;-2.40;99.90
76203;DHT22;64985;46.364;17.008;2023-02-13T20:38:02;-2.50;99.90
76203;DHT22;64985;46.364;17.008;2023-02-13T20:41:14;-2.40;99.90
76203;DHT22;64985;46.364;17.008;2023-02-13T20:44:18;-2.40;99.90
76203;DHT22;64985;46.364;17.008;2023-02-13T20:47:23;-2.50;99.90
76203;DHT22;64985;46.364;17.008;2023-02-13T20:50:26;-2.50;99.90
76203;DHT22;64985;46.364;17.008;2023-02-13T20:53:31;-2.60;99.90
76203;DHT22;64985;46.364;17.008;2023-02-13T20:56:35;-2.60;99.90
76203;DHT22;64985;46.364;17.008;2023-02-13T20:59:38;-2.70;99.90
76203;DHT22;64985;46.364;17.008;2023-02-13T21:02:42;-2.70;99.90
76203;DHT22;64985;46.364;17.008;2023-02-13T21:05:46;-2.70;99.90
76203;DHT22;64985;46.364;17.008;2023-02-13T21:08:50;-2.60;99.90
76203;DHT22;64985;46.364;17.008;2023-02-13T21:11:57;-2.60;99.90
76203;DHT22;64985;46.364;17.008;2023-02-13T21:15:01;-2.70;99.90
76203;DHT22;64985;46.364;17.008;2023-02-13T21:18:06;-2.70;99.90
76203;DHT22;64985;46.364;17.008;2023-02-13T21:21:12;-2.70;99.90
76203;DHT22;64985;46.364;17.008;2023-02-13T21:24:18;-2.80;99.90
76203;DHT22;64985;46.364;17.008;2023-02-13T21:27:22;-2.80;99.90